La Suprema — IBIL — position and weather

sailwx.info

Track history (hours):
 
Tides and Currents Weather Stations Pressure Air Temp Water Temp Dewpoint Dewpoint Depression Visibility Wind Speed Wind Dir Waves Ship Positions

La Suprema

Last reported at 2014-Sep-16 01:14 UTC. Time now 2014-Sep-16 15:29 UTC.
Position N 43°06' E 009°33'.

Length 211 m; draft 7.3 m.

Type: Passenger vessel. MMSI: 247083700.

Date/timePositionNaut miles runAvg speedWind from/ knotsBaromVisibWave heightAir tempDewpointWater temp
2014-Sep-16 01:14N 43°06' E 009°33'1421.0
2014-Sep-16 00:33N 43°19' E 009°27'2121.0
2014-Sep-15 23:33N 43°39' E 009°16'2221.5
2014-Sep-15 22:33N 43°59' E 009°06'2121.3
2014-Sep-15 21:33N 44°20' E 008°58'5 4.6
2014-Sep-15 20:23N 44°25' E 008°55'0 0.0
2014-Sep-15 19:29N 44°25' E 008°55'0 0.0
2014-Sep-15 18:31N 44°25' E 008°55'0 0.0
2014-Sep-15 17:28N 44°25' E 008°55'0 0.0
2014-Sep-15 16:34N 44°25' E 008°55'0 0.0
2014-Sep-15 15:33N 44°25' E 008°55'0 0.0
2014-Sep-15 14:33N 44°25' E 008°55'0 0.0
2014-Sep-15 13:33N 44°25' E 008°55'0 0.0
2014-Sep-15 12:34N 44°25' E 008°55'0 0.0
2014-Sep-15 11:33N 44°25' E 008°55'0 0.0
2014-Sep-15 10:32N 44°25' E 008°55'0 0.0
2014-Sep-15 09:34N 44°25' E 008°55'0 0.0
2014-Sep-15 08:33N 44°25' E 008°55'0 0.0
2014-Sep-15 07:34N 44°25' E 008°55'0 0.0
2014-Sep-15 06:33N 44°25' E 008°55'0 0.0
2014-Sep-15 05:33N 44°25' E 008°55'0 0.0
2014-Sep-15 04:33N 44°25' E 008°55'0 0.0
2014-Sep-15 03:33N 44°25' E 008°55'0 0.0
2014-Sep-15 02:33N 44°25' E 008°55'0 0.0
2014-Sep-15 01:33N 44°25' E 008°55'0 0.0
2014-Sep-15 00:33N 44°25' E 008°55'0 0.0
2014-Sep-14 23:33N 44°25' E 008°55'0 0.0
2014-Sep-14 22:33N 44°25' E 008°55'0 0.0
2014-Sep-14 21:33N 44°25' E 008°55'0 0.0
2014-Sep-14 20:33N 44°25' E 008°55'0 0.0
2014-Sep-14 19:33N 44°25' E 008°55'0 0.0
2014-Sep-14 18:34N 44°25' E 008°55'0 0.0
2014-Sep-14 17:34N 44°25' E 008°55'0 0.0
2014-Sep-14 16:33N 44°25' E 008°55'0 0.0
2014-Sep-14 15:33N 44°25' E 008°55'2 1.9
2014-Sep-14 14:33N 44°23' E 008°57'2019.9
2014-Sep-14 13:33N 44°06' E 009°11'2221.7
2014-Sep-14 12:33N 43°47' E 009°26'2221.5
2014-Sep-14 11:33N 43°29' E 009°41'2121.5
2014-Sep-14 10:33N 43°11' E 009°57'30723.6
2014-Sep-13 21:34N 38°38' E 013°04'2424.3
2014-Sep-13 20:33N 38°18' E 013°20'1010.0
2014-Sep-13 19:34N 38°08' E 013°22'0 0.0
2014-Sep-13 18:33N 38°08' E 013°22'0 0.0
2014-Sep-13 17:34N 38°08' E 013°22'0 0.0
2014-Sep-13 16:33N 38°08' E 013°22'0 0.0
2014-Sep-13 15:33N 38°08' E 013°22'2 2.1
2014-Sep-13 14:33N 38°09' E 013°24'2323.3
2014-Sep-13 13:33N 38°30' E 013°10'29422.6
2014-Sep-13 00:32N 42°41' E 009°49'3021.2
2014-Sep-12 23:08N 43°09' E 009°34'1221.3
2014-Sep-12 22:33N 43°20' E 009°28'2222.1
2014-Sep-12 21:34N 43°41' E 009°18'2221.8
2014-Sep-12 20:34N 44°01' E 009°08'2121.1
2014-Sep-12 19:34N 44°21' E 008°57'4 3.8
2014-Sep-12 18:33N 44°25' E 008°55'0 0.0
2014-Sep-12 17:33N 44°25' E 008°55'0 0.0
2014-Sep-12 16:33N 44°25' E 008°55'0 0.0
2014-Sep-12 15:33N 44°25' E 008°55'7 7.0
2014-Sep-12 14:33N 44°19' E 009°00'2121.5
2014-Sep-12 13:33N 44°00' E 009°15'2221.6
2014-Sep-12 12:33N 43°41' E 009°30'2121.3
2014-Sep-12 11:33N 43°23' E 009°45'2121.1
2014-Sep-12 10:33N 43°04' E 009°59'30223.1
2014-Sep-11 21:31N 38°37' E 013°03'2323.9
2014-Sep-11 20:33N 38°18' E 013°21'1110.5
2014-Sep-11 19:33N 38°08' E 013°22'0 0.0
2014-Sep-11 18:33N 38°08' E 013°22'0 0.0
2014-Sep-11 17:33N 38°08' E 013°22'0 0.0
2014-Sep-11 16:33N 38°08' E 013°22'0 0.0
2014-Sep-11 15:33N 38°08' E 013°22'6 6.1
2014-Sep-11 14:34N 38°14' E 013°23'2121.3
2014-Sep-11 13:33N 38°32' E 013°09'32422.6
2014-Sep-10 23:13N 43°11' E 009°31'1624.3
2014-Sep-10 22:34N 43°27' E 009°25'2524.6
2014-Sep-10 21:34N 43°50' E 009°13'2424.3
2014-Sep-10 20:34N 44°13' E 009°01'1312.9
2014-Sep-10 19:33N 44°25' E 008°55'0 0.0
2014-Sep-10 18:32N 44°25' E 008°55'0 0.0
2014-Sep-10 17:33N 44°25' E 008°55'0 0.0
2014-Sep-10 16:33N 44°25' E 008°55'0 0.0
2014-Sep-10 15:33N 44°25' E 008°55'5 5.2
2014-Sep-10 14:33N 44°20' E 008°59'2221.8
2014-Sep-10 13:33N 44°01' E 009°14'5321.5
2014-Sep-10 11:07N 43°16' E 009°51'38 1.1
2014-Sep-09 00:33N 42°38' E 009°50'2421.4
2014-Sep-08 23:26N 43°01' E 009°39'1921.4
2014-Sep-08 22:33N 43°19' E 009°31'2222.1
2014-Sep-08 21:33N 43°39' E 009°19'2221.7
2014-Sep-08 20:33N 43°60' E 009°08'2221.7
2014-Sep-08 19:33N 44°20' E 008°58'5 5.1
2014-Sep-08 18:33N 44°25' E 008°55'0 0.0
2014-Sep-08 17:33N 44°25' E 008°55'0 0.0
2014-Sep-08 16:33N 44°25' E 008°55'0 0.0
2014-Sep-08 15:33N 44°25' E 008°55'0 0.0
2014-Sep-08 14:33N 44°25' E 008°55'1110.8
2014-Sep-08 13:34N 44°15' E 009°03'2221.9
2014-Sep-08 12:34N 43°56' E 009°18'2222.0
2014-Sep-08 11:33N 43°38' E 009°34'2221.7
2014-Sep-08 10:33N 43°19' E 009°50'2221.0
2014-Sep-08 09:30N 42°58' E 009°60'29323.7
2014-Sep-07 21:06N 38°40' E 013°03'1425.0
2014-Sep-07 20:33N 38°28' E 013°12'2322.7
2014-Sep-07 19:33N 38°08' E 013°24'2 1.7
2014-Sep-07 18:33N 38°08' E 013°22'0 0.0
2014-Sep-07 17:33N 38°08' E 013°22'0 0.0
2014-Sep-07 16:33N 38°08' E 013°22'0 0.0
2014-Sep-07 15:33N 38°08' E 013°22'2 2.2
2014-Sep-07 14:34N 38°09' E 013°24'2120.6
2014-Sep-07 13:33N 38°27' E 013°12'22322.3
2014-Sep-07 03:33N 41°35' E 010°36'6821.9
2014-Sep-07 00:28N 42°35' E 009°51'2021.9
2014-Sep-06 23:33N 42°52' E 009°39'2121.2
2014-Sep-06 22:33N 43°13' E 009°32'2222.1
2014-Sep-06 21:34N 43°33' E 009°21'2221.6
2014-Sep-06 20:33N 43°54' E 009°11'2221.7
2014-Sep-06 19:33N 44°14' E 009°01'1111.0
2014-Sep-06 18:33N 44°25' E 008°55'0 0.0
2014-Sep-06 17:32N 44°25' E 008°55'0 0.0
2014-Sep-06 16:33N 44°25' E 008°55'0 0.0
2014-Sep-06 15:33N 44°25' E 008°55'4 3.8
2014-Sep-06 14:33N 44°22' E 008°58'2020.5
2014-Sep-06 13:33N 44°04' E 009°13'2121.4
2014-Sep-06 12:33N 43°45' E 009°27'2121.2
2014-Sep-06 11:33N 43°27' E 009°41'2120.7
2014-Sep-06 10:33N 43°10' E 009°57'  
Track history (hours):
 
Tides and Currents Weather Stations Pressure Air Temp Water Temp Dewpoint Dewpoint Depression Visibility Wind Speed Wind Dir Waves Ship Positions

La Suprema

Last reported at 2014-Sep-16 01:14 UTC. Time now 2014-Sep-16 15:29 UTC.
Position N 43°06' E 009°33'.

Length 211 m; draft 7.3 m.

Type: Passenger vessel. MMSI: 247083700.

Date/timePositionNaut miles runAvg speedWind from/ knotsBaromVisibWave heightAir tempDewpointWater temp
2014-Sep-16 01:14N 43°06' E 009°33'1421.0
2014-Sep-16 00:33N 43°19' E 009°27'2121.0
2014-Sep-15 23:33N 43°39' E 009°16'2221.5
2014-Sep-15 22:33N 43°59' E 009°06'2121.3
2014-Sep-15 21:33N 44°20' E 008°58'5 4.6
2014-Sep-15 20:23N 44°25' E 008°55'0 0.0
2014-Sep-15 19:29N 44°25' E 008°55'0 0.0
2014-Sep-15 18:31N 44°25' E 008°55'0 0.0
2014-Sep-15 17:28N 44°25' E 008°55'0 0.0
2014-Sep-15 16:34N 44°25' E 008°55'0 0.0
2014-Sep-15 15:33N 44°25' E 008°55'0 0.0
2014-Sep-15 14:33N 44°25' E 008°55'0 0.0
2014-Sep-15 13:33N 44°25' E 008°55'0 0.0
2014-Sep-15 12:34N 44°25' E 008°55'0 0.0
2014-Sep-15 11:33N 44°25' E 008°55'0 0.0
2014-Sep-15 10:32N 44°25' E 008°55'0 0.0
2014-Sep-15 09:34N 44°25' E 008°55'0 0.0
2014-Sep-15 08:33N 44°25' E 008°55'0 0.0
2014-Sep-15 07:34N 44°25' E 008°55'0 0.0
2014-Sep-15 06:33N 44°25' E 008°55'0 0.0
2014-Sep-15 05:33N 44°25' E 008°55'0 0.0
2014-Sep-15 04:33N 44°25' E 008°55'0 0.0
2014-Sep-15 03:33N 44°25' E 008°55'0 0.0
2014-Sep-15 02:33N 44°25' E 008°55'0 0.0
2014-Sep-15 01:33N 44°25' E 008°55'0 0.0
2014-Sep-15 00:33N 44°25' E 008°55'0 0.0
2014-Sep-14 23:33N 44°25' E 008°55'0 0.0
2014-Sep-14 22:33N 44°25' E 008°55'0 0.0
2014-Sep-14 21:33N 44°25' E 008°55'0 0.0
2014-Sep-14 20:33N 44°25' E 008°55'0 0.0
2014-Sep-14 19:33N 44°25' E 008°55'0 0.0
2014-Sep-14 18:34N 44°25' E 008°55'0 0.0
2014-Sep-14 17:34N 44°25' E 008°55'0 0.0
2014-Sep-14 16:33N 44°25' E 008°55'0 0.0
2014-Sep-14 15:33N 44°25' E 008°55'2 1.9
2014-Sep-14 14:33N 44°23' E 008°57'2019.9
2014-Sep-14 13:33N 44°06' E 009°11'2221.7
2014-Sep-14 12:33N 43°47' E 009°26'2221.5
2014-Sep-14 11:33N 43°29' E 009°41'2121.5
2014-Sep-14 10:33N 43°11' E 009°57'30723.6
2014-Sep-13 21:34N 38°38' E 013°04'2424.3
2014-Sep-13 20:33N 38°18' E 013°20'1010.0
2014-Sep-13 19:34N 38°08' E 013°22'0 0.0
2014-Sep-13 18:33N 38°08' E 013°22'0 0.0
2014-Sep-13 17:34N 38°08' E 013°22'0 0.0
2014-Sep-13 16:33N 38°08' E 013°22'0 0.0
2014-Sep-13 15:33N 38°08' E 013°22'2 2.1
2014-Sep-13 14:33N 38°09' E 013°24'2323.3
2014-Sep-13 13:33N 38°30' E 013°10'29422.6
2014-Sep-13 00:32N 42°41' E 009°49'3021.2
2014-Sep-12 23:08N 43°09' E 009°34'1221.3
2014-Sep-12 22:33N 43°20' E 009°28'2222.1
2014-Sep-12 21:34N 43°41' E 009°18'2221.8
2014-Sep-12 20:34N 44°01' E 009°08'2121.1
2014-Sep-12 19:34N 44°21' E 008°57'4 3.8
2014-Sep-12 18:33N 44°25' E 008°55'0 0.0
2014-Sep-12 17:33N 44°25' E 008°55'0 0.0
2014-Sep-12 16:33N 44°25' E 008°55'0 0.0
2014-Sep-12 15:33N 44°25' E 008°55'7 7.0
2014-Sep-12 14:33N 44°19' E 009°00'2121.5
2014-Sep-12 13:33N 44°00' E 009°15'2221.6
2014-Sep-12 12:33N 43°41' E 009°30'2121.3
2014-Sep-12 11:33N 43°23' E 009°45'2121.1
2014-Sep-12 10:33N 43°04' E 009°59'30223.1
2014-Sep-11 21:31N 38°37' E 013°03'2323.9
2014-Sep-11 20:33N 38°18' E 013°21'1110.5
2014-Sep-11 19:33N 38°08' E 013°22'0 0.0
2014-Sep-11 18:33N 38°08' E 013°22'0 0.0
2014-Sep-11 17:33N 38°08' E 013°22'0 0.0
2014-Sep-11 16:33N 38°08' E 013°22'0 0.0
2014-Sep-11 15:33N 38°08' E 013°22'6 6.1
2014-Sep-11 14:34N 38°14' E 013°23'2121.3
2014-Sep-11 13:33N 38°32' E 013°09'32422.6
2014-Sep-10 23:13N 43°11' E 009°31'1624.3
2014-Sep-10 22:34N 43°27' E 009°25'2524.6
2014-Sep-10 21:34N 43°50' E 009°13'2424.3
2014-Sep-10 20:34N 44°13' E 009°01'1312.9
2014-Sep-10 19:33N 44°25' E 008°55'0 0.0
2014-Sep-10 18:32N 44°25' E 008°55'0 0.0
2014-Sep-10 17:33N 44°25' E 008°55'0 0.0
2014-Sep-10 16:33N 44°25' E 008°55'0 0.0
2014-Sep-10 15:33N 44°25' E 008°55'5 5.2
2014-Sep-10 14:33N 44°20' E 008°59'2221.8
2014-Sep-10 13:33N 44°01' E 009°14'5321.5
2014-Sep-10 11:07N 43°16' E 009°51'38 1.1
2014-Sep-09 00:33N 42°38' E 009°50'2421.4
2014-Sep-08 23:26N 43°01' E 009°39'1921.4
2014-Sep-08 22:33N 43°19' E 009°31'2222.1
2014-Sep-08 21:33N 43°39' E 009°19'2221.7
2014-Sep-08 20:33N 43°60' E 009°08'2221.7
2014-Sep-08 19:33N 44°20' E 008°58'5 5.1
2014-Sep-08 18:33N 44°25' E 008°55'0 0.0
2014-Sep-08 17:33N 44°25' E 008°55'0 0.0
2014-Sep-08 16:33N 44°25' E 008°55'0 0.0
2014-Sep-08 15:33N 44°25' E 008°55'0 0.0
2014-Sep-08 14:33N 44°25' E 008°55'1110.8
2014-Sep-08 13:34N 44°15' E 009°03'2221.9
2014-Sep-08 12:34N 43°56' E 009°18'2222.0
2014-Sep-08 11:33N 43°38' E 009°34'2221.7
2014-Sep-08 10:33N 43°19' E 009°50'2221.0
2014-Sep-08 09:30N 42°58' E 009°60'29323.7
2014-Sep-07 21:06N 38°40' E 013°03'1425.0
2014-Sep-07 20:33N 38°28' E 013°12'2322.7
2014-Sep-07 19:33N 38°08' E 013°24'2 1.7
2014-Sep-07 18:33N 38°08' E 013°22'0 0.0
2014-Sep-07 17:33N 38°08' E 013°22'0 0.0
2014-Sep-07 16:33N 38°08' E 013°22'0 0.0
2014-Sep-07 15:33N 38°08' E 013°22'2 2.2
2014-Sep-07 14:34N 38°09' E 013°24'2120.6
2014-Sep-07 13:33N 38°27' E 013°12'22322.3
2014-Sep-07 03:33N 41°35' E 010°36'6821.9
2014-Sep-07 00:28N 42°35' E 009°51'2021.9
2014-Sep-06 23:33N 42°52' E 009°39'2121.2
2014-Sep-06 22:33N 43°13' E 009°32'2222.1
2014-Sep-06 21:34N 43°33' E 009°21'2221.6
2014-Sep-06 20:33N 43°54' E 009°11'2221.7
2014-Sep-06 19:33N 44°14' E 009°01'1111.0
2014-Sep-06 18:33N 44°25' E 008°55'0 0.0
2014-Sep-06 17:32N 44°25' E 008°55'0 0.0
2014-Sep-06 16:33N 44°25' E 008°55'0 0.0
2014-Sep-06 15:33N 44°25' E 008°55'4 3.8
2014-Sep-06 14:33N 44°22' E 008°58'2020.5
2014-Sep-06 13:33N 44°04' E 009°13'2121.4
2014-Sep-06 12:33N 43°45' E 009°27'2121.2
2014-Sep-06 11:33N 43°27' E 009°41'2120.7
2014-Sep-06 10:33N 43°10' E 009°57'  

Dump ship's entire track history